Home   Weather   Nepal   Kathmandu   Past weeks
Flag for Nepal

Past Weather in Kathmandu, Nepal — Yesterday and Last 2 Weeks

Currently: 57 °F. Haze. (Weather station: Kathmandu Airport, Nepal). See more current weather

Past Weather in Kathmandu — Graph

°F

Kathmandu Temperature Yesterday

Maximum temperature yesterday: 72 °F (at 1:45 pm)
Minimum temperature yesterday: 45 °F (at 6:45 am)
Average temperature yesterday: 57 °F

High & Low Weather Summary for the Past Weeks

 TemperatureHumidityPressure
High73 °F (Jan 27, 2:15 pm)100% (Jan 21, 5:15 am)30.27 "Hg (Jan 21, 5:15 am)
Low39 °F (Jan 22, 5:15 am)17% (Jan 22, 2:45 pm)29.98 "Hg (Jan 23, 3:15 pm)
Average56 °F59%30.09 "Hg
* Reported Jan 20 8:45 am — Feb 4 9:15 am, Kathmandu. Weather by CustomWeather, © 2023

Note: Actual official high and low records may vary slightly from our data, if they occured in-between our weather recording intervals... More about our weather records

Kathmandu Weather History for the Previous 24 Hours

Scroll right to see more
 ConditionsComfort  
Time TempWeatherWind HumidityBarometerVisibility
9:15 am
Sat, Feb 4
54 °FFog.2 mph72%30.07 "Hg1 mi
8:45 am52 °FFog.No wind77%30.07 "Hg1 mi
8:15 am48 °FFog.No wind82%30.07 "Hg1 mi
7:45 am46 °FFog.No wind87%30.04 "Hg1 mi
7:15 am45 °FFog.No wind93%30.04 "Hg1 mi
6:45 am45 °FFog.3 mph87%30.04 "Hg2 mi
5:15 am46 °FFog.2 mph87%29.98 "Hg3 mi
4:45 am46 °FFog.3 mph87%29.98 "Hg3 mi
3:45 am46 °FPassing clouds.2 mph87%30.01 "Hg4 mi
3:15 am48 °FPassing clouds.2 mph82%30.01 "Hg4 mi
2:45 am48 °FPassing clouds.3 mph82%30.01 "Hg4 mi
2:15 am50 °FPassing clouds.3 mph76%30.01 "Hg4 mi
1:45 am50 °FPassing clouds.3 mph76%30.04 "Hg4 mi
1:15 am50 °FPassing clouds.3 mph82%30.04 "Hg4 mi
12:45 am52 °FPassing clouds.3 mph82%30.04 "Hg4 mi
11:45 pm
Fri, Feb 3
52 °FPassing clouds.2 mph77%30.07 "Hg4 mi
11:15 pm52 °FPassing clouds.3 mph77%30.07 "Hg4 mi
10:45 pm52 °FPassing clouds.3 mph77%30.07 "Hg4 mi
9:45 pm54 °FPassing clouds.3 mph72%30.07 "Hg4 mi
9:15 pm55 °FPassing clouds.3 mph72%30.07 "Hg4 mi
8:45 pm55 °FPassing clouds.5 mph77%30.04 "Hg4 mi
8:15 pm57 °FPassing clouds.6 mph67%30.04 "Hg4 mi
7:45 pm57 °FPassing clouds.5 mph67%30.04 "Hg4 mi
7:15 pm59 °FPassing clouds.6 mph63%30.04 "Hg4 mi
6:45 pm59 °FPassing clouds.6 mph63%30.01 "Hg4 mi
6:15 pm61 °FPassing clouds.9 mph55%30.01 "Hg5 mi
5:45 pm63 °FPassing clouds.7 mph49%30.01 "Hg5 mi
5:15 pm64 °FPassing clouds.8 mph43%30.01 "Hg5 mi
4:45 pm66 °FPassing clouds.9 mph37%29.98 "Hg5 mi
4:15 pm66 °FPassing clouds.10 mph35%29.98 "Hg5 mi
3:45 pm68 °FPassing clouds.10 mph30%29.98 "Hg5 mi
3:15 pm72 °FPassing clouds.5 mph23%29.98 "Hg5 mi
2:45 pm72 °FPassing clouds.5 mph20%30.01 "Hg5 mi
2:15 pm72 °FPassing clouds.3 mph20%30.01 "Hg5 mi
1:45 pm72 °FPassing clouds.3 mph20%30.04 "Hg5 mi
1:15 pm70 °FPassing clouds.3 mph25%30.07 "Hg5 mi
12:45 pm68 °FPassing clouds.3 mph26%30.09 "Hg5 mi
11:45 am66 °FPassing clouds.3 mph40%30.12 "Hg4 mi
11:15 am63 °FPassing clouds.3 mph49%30.15 "Hg4 mi
10:45 am61 °FHaze.3 mph55%30.18 "Hg3 mi
10:15 am59 °FHaze.2 mph55%30.18 "Hg2 mi
Weather by CustomWeather, © 2023

See weather overview